createdAt,value
2023-02-19T00:02:46.563Z,25.63
2023-02-19T00:05:36.945Z,25.53
2023-02-19T00:08:25.818Z,25.53
2023-02-19T00:11:19.453Z,25.45
2023-02-19T00:14:09.383Z,25.35
2023-02-19T00:17:02.230Z,25.38
2023-02-19T00:19:53.142Z,25.30
2023-02-19T00:22:42.114Z,25.22
2023-02-19T00:25:30.809Z,25.22
2023-02-19T00:28:22.118Z,25.16
2023-02-19T00:31:14.884Z,25.21
2023-02-19T00:34:06.703Z,25.19
2023-02-19T00:36:56.963Z,25.19
2023-02-19T00:39:46.189Z,25.14
2023-02-19T00:42:34.880Z,25.17
2023-02-19T00:45:25.228Z,25.15
2023-02-19T00:48:14.007Z,25.12
2023-02-19T00:51:02.898Z,25.12
2023-02-19T00:53:53.088Z,25.11
2023-02-19T00:56:42.224Z,25.11
2023-02-19T00:59:30.905Z,25.10
2023-02-19T01:02:19.579Z,25.15
2023-02-19T01:05:08.487Z,25.09
2023-02-19T01:07:57.205Z,25.14
2023-02-19T01:10:47.428Z,25.14
2023-02-19T01:13:36.458Z,25.04
2023-02-19T01:16:25.634Z,24.98
2023-02-19T01:19:14.534Z,24.96
2023-02-19T01:22:03.199Z,24.96
2023-02-19T01:24:51.804Z,25.03
2023-02-19T01:27:41.972Z,25.02
2023-02-19T01:30:30.690Z,25.03
2023-02-19T01:33:19.377Z,24.99
2023-02-19T01:36:09.077Z,24.94
2023-02-19T01:38:57.708Z,25.02
2023-02-19T01:41:46.383Z,24.93
2023-02-19T01:45:26.722Z,24.93
2023-02-19T01:48:18.975Z,24.96
2023-02-19T01:51:09.729Z,24.97
2023-02-19T01:54:01.035Z,24.95
2023-02-19T01:56:50.500Z,25.01
2023-02-19T01:59:39.434Z,24.98
2023-02-19T02:02:28.532Z,25.00
2023-02-19T02:05:23.728Z,24.99
2023-02-19T02:08:45.058Z,25.07
2023-02-19T02:11:33.758Z,25.06
2023-02-19T02:14:25.089Z,25.05
2023-02-19T02:17:20.122Z,25.04
2023-02-19T02:20:33.542Z,25.04
2023-02-19T02:23:29.055Z,25.13
2023-02-19T02:26:27.777Z,25.12
2023-02-19T02:29:53.811Z,25.05
2023-02-19T02:32:53.419Z,25.06
2023-02-19T02:35:45.906Z,24.96
2023-02-19T02:38:37.192Z,24.98
2023-02-19T02:41:26.741Z,25.04
2023-02-19T02:44:15.370Z,25.03
2023-02-19T02:47:06.280Z,25.02
2023-02-19T02:50:06.076Z,25.02
2023-02-19T02:53:15.928Z,24.99
2023-02-19T02:56:05.633Z,24.92
2023-02-19T02:58:55.064Z,24.96
2023-02-19T03:02:03.133Z,24.98
2023-02-19T03:05:14.988Z,24.86
2023-02-19T03:08:10.896Z,24.91
2023-02-19T03:11:23.403Z,24.93
2023-02-19T03:14:33.604Z,24.89
2023-02-19T03:17:43.575Z,24.98
2023-02-19T03:20:36.302Z,24.97
2023-02-19T03:23:46.365Z,25.00
2023-02-19T03:26:34.522Z,25.00
2023-02-19T03:29:27.063Z,24.96
2023-02-19T03:32:20.162Z,24.97
2023-02-19T03:35:11.678Z,24.99
2023-02-19T03:38:05.593Z,25.00
2023-02-19T03:40:57.757Z,24.98
2023-02-19T03:43:51.990Z,24.95
2023-02-19T03:46:45.915Z,24.93
2023-02-19T03:49:37.070Z,24.89
2023-02-19T03:52:31.725Z,24.90
2023-02-19T03:55:27.259Z,24.95
2023-02-19T03:58:20.079Z,24.91
2023-02-19T04:01:11.364Z,25.00
2023-02-19T04:04:05.457Z,25.01
2023-02-19T04:06:57.042Z,25.00
2023-02-19T04:09:47.981Z,24.92
2023-02-19T04:12:39.420Z,24.93
2023-02-19T04:15:31.045Z,24.99
2023-02-19T04:18:21.481Z,25.01
2023-02-19T04:21:11.275Z,24.93
2023-02-19T04:24:01.240Z,24.95
2023-02-19T04:26:50.134Z,24.95
2023-02-19T04:29:40.169Z,24.91
2023-02-19T04:32:28.906Z,24.89
2023-02-19T04:35:17.673Z,24.91
2023-02-19T04:38:06.370Z,24.88
2023-02-19T04:40:55.033Z,24.91
2023-02-19T04:43:43.636Z,24.89
2023-02-19T04:46:33.685Z,24.91
2023-02-19T04:49:22.372Z,24.91
2023-02-19T04:52:11.262Z,24.88
2023-02-19T04:54:59.881Z,24.91
2023-02-19T04:57:48.663Z,24.89
2023-02-19T05:00:37.347Z,24.89
2023-02-19T05:03:27.549Z,24.85
2023-02-19T05:06:16.218Z,24.87
2023-02-19T05:09:05.398Z,24.81
2023-02-19T05:11:54.110Z,24.86
2023-02-19T05:14:42.717Z,24.89
2023-02-19T05:17:31.479Z,24.84
2023-02-19T05:20:22.987Z,24.87
2023-02-19T05:23:11.806Z,24.87
2023-02-19T05:26:00.668Z,24.88
2023-02-19T05:28:51.480Z,24.86
2023-02-19T05:31:40.240Z,24.87
2023-02-19T05:34:29.353Z,24.89
2023-02-19T05:37:19.573Z,24.90
2023-02-19T05:40:08.524Z,24.81
2023-02-19T05:42:57.277Z,24.85
2023-02-19T05:45:46.074Z,24.82
2023-02-19T05:48:35.136Z,24.79
2023-02-19T05:51:25.289Z,24.80
2023-02-19T05:54:15.406Z,24.76
2023-02-19T05:57:04.321Z,24.75
2023-02-19T05:59:52.933Z,24.73
2023-02-19T06:02:41.685Z,24.72
2023-02-19T06:05:30.342Z,24.71
2023-02-19T06:08:19.082Z,24.75
2023-02-19T06:11:09.355Z,24.71
2023-02-19T06:13:58.290Z,24.70
2023-02-19T06:16:47.031Z,24.71
2023-02-19T06:19:35.672Z,24.75
2023-02-19T06:22:24.382Z,24.73
2023-02-19T06:25:16.120Z,24.73
2023-02-19T06:28:06.659Z,24.81
2023-02-19T06:30:55.234Z,24.78
2023-02-19T06:33:44.052Z,24.75
2023-02-19T06:36:32.792Z,24.73
2023-02-19T06:39:21.495Z,24.79
2023-02-19T06:42:10.148Z,24.80
2023-02-19T06:45:01.921Z,24.80
2023-02-19T06:47:50.545Z,24.79
2023-02-19T06:50:39.282Z,24.73
2023-02-19T06:53:28.127Z,24.76
2023-02-19T06:56:25.656Z,24.74
2023-02-19T06:59:16.887Z,24.77
2023-02-19T07:02:07.136Z,24.74
2023-02-19T07:04:55.768Z,24.82
2023-02-19T07:07:47.048Z,24.74
2023-02-19T07:10:35.757Z,24.76
2023-02-19T07:13:24.421Z,24.73
2023-02-19T07:16:13.991Z,24.72
2023-02-19T07:19:04.278Z,24.74
2023-02-19T07:21:53.226Z,24.74
2023-02-19T07:24:41.852Z,24.79
2023-02-19T07:27:30.542Z,24.76
2023-02-19T07:30:19.431Z,24.72
2023-02-19T07:33:10.467Z,24.72
2023-02-19T07:36:00.762Z,24.74
2023-02-19T07:38:49.551Z,24.79
2023-02-19T07:41:38.166Z,24.76
2023-02-19T07:44:27.041Z,24.74
2023-02-19T07:47:15.694Z,24.77
2023-02-19T07:50:04.347Z,24.83
2023-02-19T07:52:54.396Z,24.81
2023-02-19T07:55:43.060Z,24.76
2023-02-19T07:58:32.181Z,24.82
2023-02-19T08:01:44.265Z,24.85
2023-02-19T08:04:31.926Z,24.90
2023-02-19T08:07:20.731Z,24.89
2023-02-19T08:10:28.761Z,24.84
2023-02-19T08:13:22.676Z,24.87
2023-02-19T08:16:20.296Z,25.12
2023-02-19T08:19:13.110Z,25.06
2023-02-19T08:22:01.799Z,25.15
2023-02-19T08:24:50.529Z,25.09
2023-02-19T08:27:40.591Z,25.03
2023-02-19T08:30:30.010Z,24.63
2023-02-19T08:33:21.237Z,24.50
2023-02-19T08:36:12.107Z,24.42
2023-02-19T08:39:00.825Z,24.36
2023-02-19T08:41:49.523Z,24.33
2023-02-19T08:44:39.950Z,24.33
2023-02-19T08:47:28.881Z,24.55
2023-02-19T08:50:17.540Z,24.88
2023-02-19T08:53:07.179Z,24.98
2023-02-19T08:55:55.778Z,25.03
2023-02-19T08:58:45.205Z,25.16
2023-02-19T09:01:35.540Z,25.34
2023-02-19T09:04:24.255Z,25.42
2023-02-19T09:07:14.064Z,25.44
2023-02-19T09:10:03.008Z,25.46
2023-02-19T09:12:51.720Z,25.49
2023-02-19T09:15:40.402Z,25.44
2023-02-19T09:18:30.506Z,25.44
2023-02-19T09:21:19.208Z,25.49
2023-02-19T09:24:10.482Z,25.53
2023-02-19T09:26:59.608Z,25.75
2023-02-19T09:29:48.506Z,25.89
2023-02-19T09:32:37.587Z,25.92
2023-02-19T09:35:27.815Z,25.95
2023-02-19T09:38:16.500Z,26.06
2023-02-19T09:41:08.921Z,26.14
2023-02-19T09:43:57.987Z,26.09
2023-02-19T09:46:49.356Z,26.06
2023-02-19T09:49:40.463Z,26.04
2023-02-19T09:52:34.879Z,26.14
2023-02-19T09:55:31.123Z,26.18
2023-02-19T09:58:27.066Z,26.17
2023-02-19T10:01:16.355Z,26.23
2023-02-19T10:04:06.368Z,26.19
2023-02-19T10:06:59.514Z,26.14
2023-02-19T10:09:53.962Z,26.25
2023-02-19T10:12:47.861Z,26.33
2023-02-19T10:15:40.047Z,26.30
2023-02-19T10:18:32.852Z,25.74
2023-02-19T10:21:24.980Z,25.41
2023-02-19T10:24:19.650Z,25.02
2023-02-19T10:27:16.566Z,25.06
2023-02-19T10:30:07.445Z,24.95
2023-02-19T10:33:03.599Z,24.88
2023-02-19T10:35:57.635Z,24.84
2023-02-19T10:38:50.908Z,24.85
2023-02-19T10:41:44.312Z,24.79
2023-02-19T10:44:38.204Z,24.84
2023-02-19T10:47:28.096Z,24.78
2023-02-19T10:50:23.365Z,25.08
2023-02-19T10:53:24.090Z,24.91
2023-02-19T10:56:15.494Z,24.91
2023-02-19T10:59:27.688Z,24.88
2023-02-19T11:02:20.825Z,24.77
2023-02-19T11:05:19.913Z,24.95
2023-02-19T11:08:23.072Z,24.87
2023-02-19T11:11:12.174Z,24.91
2023-02-19T11:14:03.037Z,25.01
2023-02-19T11:16:53.665Z,24.95
2023-02-19T11:19:48.583Z,25.07
2023-02-19T11:22:40.251Z,25.15
2023-02-19T11:25:29.266Z,25.17
2023-02-19T11:28:30.280Z,25.14
2023-02-19T11:31:25.739Z,25.25
2023-02-19T11:34:31.146Z,25.25
2023-02-19T11:37:22.293Z,25.48
2023-02-19T11:40:14.050Z,25.57
2023-02-19T11:43:09.080Z,25.57
2023-02-19T11:46:05.180Z,25.65
2023-02-19T11:48:55.897Z,25.72
2023-02-19T11:52:18.260Z,25.69
2023-02-19T11:55:14.948Z,25.69
2023-02-19T11:58:14.143Z,25.73
2023-02-19T12:01:09.870Z,25.76
2023-02-19T12:04:12.278Z,25.51
2023-02-19T12:07:06.465Z,25.71
2023-02-19T12:10:05.413Z,25.30
2023-02-19T12:13:03.634Z,25.43
2023-02-19T12:16:02.083Z,25.46
2023-02-19T12:19:12.217Z,25.58
2023-02-19T12:22:19.678Z,25.98
2023-02-19T12:25:34.454Z,26.06
2023-02-19T12:28:38.968Z,26.10
2023-02-19T12:31:49.168Z,26.14
2023-02-19T12:34:48.582Z,26.24
2023-02-19T12:37:44.852Z,26.29
2023-02-19T12:40:40.477Z,26.23
2023-02-19T12:43:32.283Z,26.34
2023-02-19T12:46:24.632Z,26.34
2023-02-19T12:49:15.524Z,26.30
2023-02-19T12:52:08.914Z,26.37
2023-02-19T12:55:15.237Z,26.40
2023-02-19T12:58:06.316Z,26.15
2023-02-19T13:00:59.977Z,25.73
2023-02-19T13:03:53.807Z,25.99
2023-02-19T13:06:45.253Z,25.59
2023-02-19T13:09:37.985Z,25.51
2023-02-19T13:12:28.031Z,25.43
2023-02-19T13:15:19.315Z,25.54
2023-02-19T13:18:15.421Z,25.65
2023-02-19T13:21:06.157Z,25.93
2023-02-19T13:23:59.689Z,26.18
2023-02-19T13:27:05.886Z,26.08
2023-02-19T13:30:04.774Z,26.23
2023-02-19T13:33:00.623Z,26.46
2023-02-19T13:36:13.109Z,26.61
2023-02-19T13:39:02.009Z,26.46
2023-02-19T13:41:55.205Z,26.04
2023-02-19T13:44:52.432Z,26.34
2023-02-19T13:47:50.708Z,26.16
2023-02-19T13:50:40.146Z,26.32
2023-02-19T13:53:57.573Z,26.36
2023-02-19T13:56:46.229Z,26.53
2023-02-19T13:59:38.881Z,26.65
2023-02-19T14:02:35.178Z,26.53
2023-02-19T14:06:00.790Z,26.63
2023-02-19T14:08:55.984Z,26.57
2023-02-19T14:12:05.266Z,26.56
2023-02-19T14:14:54.730Z,26.60
2023-02-19T14:17:45.773Z,26.53
2023-02-19T14:20:46.316Z,26.60
2023-02-19T14:23:35.175Z,26.63
2023-02-19T14:26:25.774Z,26.70
2023-02-19T14:29:16.528Z,26.72
2023-02-19T14:32:07.270Z,26.80
2023-02-19T14:34:58.073Z,26.84
2023-02-19T14:37:47.679Z,26.81
2023-02-19T14:40:41.540Z,26.88
2023-02-19T14:43:31.792Z,26.96
2023-02-19T14:46:26.573Z,26.99
2023-02-19T14:49:17.680Z,26.98
2023-02-19T14:52:09.027Z,26.79
2023-02-19T14:55:01.227Z,26.76
2023-02-19T14:57:50.965Z,26.82
2023-02-19T15:00:42.951Z,26.87
2023-02-19T15:03:34.552Z,26.83
2023-02-19T15:06:24.397Z,26.77
2023-02-19T15:09:14.504Z,26.79
2023-02-19T15:12:04.073Z,26.74
2023-02-19T15:14:55.340Z,26.81
2023-02-19T15:17:45.466Z,26.63
2023-02-19T15:20:36.024Z,26.55
2023-02-19T15:23:25.745Z,26.54
2023-02-19T15:26:24.527Z,26.56
2023-02-19T15:29:15.228Z,26.31
2023-02-19T15:32:04.153Z,26.69
2023-02-19T15:34:58.893Z,26.61
2023-02-19T15:37:47.752Z,26.30
2023-02-19T15:40:37.130Z,26.16
2023-02-19T15:43:29.645Z,26.19
2023-02-19T15:46:22.376Z,26.19
2023-02-19T15:49:14.610Z,26.01
2023-02-19T15:52:07.566Z,26.16
2023-02-19T15:54:59.540Z,26.18
2023-02-19T15:57:53.556Z,26.19
2023-02-19T16:00:44.810Z,26.10
2023-02-19T16:03:34.403Z,25.97
2023-02-19T16:06:25.027Z,25.95
2023-02-19T16:09:22.391Z,25.93
2023-02-19T16:12:22.251Z,25.91
2023-02-19T16:15:15.469Z,25.83
2023-02-19T16:18:04.617Z,25.86
2023-02-19T16:20:53.653Z,25.71
2023-02-19T16:23:43.991Z,25.52
2023-02-19T16:26:41.630Z,25.49
2023-02-19T16:29:32.764Z,25.45
2023-02-19T16:32:21.777Z,25.49
2023-02-19T16:35:36.590Z,25.53
2023-02-19T16:38:25.508Z,25.48
2023-02-19T16:41:16.421Z,25.44
2023-02-19T16:44:32.536Z,25.46
2023-02-19T16:47:32.849Z,25.43
2023-02-19T16:50:24.042Z,25.44
2023-02-19T16:53:19.781Z,25.42
2023-02-19T16:56:10.428Z,25.42
2023-02-19T16:58:59.290Z,25.40
2023-02-19T17:01:49.687Z,25.35
2023-02-19T17:04:38.619Z,25.47
2023-02-19T17:07:28.019Z,25.54
2023-02-19T17:10:19.996Z,25.64
2023-02-19T17:13:08.954Z,25.66
2023-02-19T17:15:57.816Z,25.75
2023-02-19T17:18:47.917Z,25.80
2023-02-19T17:21:36.609Z,25.77
2023-02-19T17:24:25.296Z,25.80
2023-02-19T17:27:14.250Z,25.80
2023-02-19T17:30:03.179Z,25.71
2023-02-19T17:32:52.436Z,25.72
2023-02-19T17:35:44.825Z,25.79
2023-02-19T17:38:33.657Z,25.77
2023-02-19T17:41:22.370Z,25.80
2023-02-19T17:44:11.451Z,25.71
2023-02-19T17:47:00.129Z,25.77
2023-02-19T17:49:48.749Z,25.83
2023-02-19T17:52:38.808Z,25.91
2023-02-19T17:55:27.479Z,26.11
2023-02-19T17:58:16.244Z,26.16
2023-02-19T18:01:05.042Z,26.20
2023-02-19T18:03:53.872Z,26.00
2023-02-19T18:06:42.877Z,26.00
2023-02-19T18:09:32.925Z,26.08
2023-02-19T18:12:21.711Z,26.19
2023-02-19T18:15:13.184Z,26.25
2023-02-19T18:18:02.289Z,26.16
2023-02-19T18:20:51.083Z,26.21
2023-02-19T18:23:40.047Z,26.43
2023-02-19T18:26:30.163Z,26.46
2023-02-19T18:29:19.919Z,26.52
2023-02-19T18:32:08.717Z,26.49
2023-02-19T18:35:00.543Z,26.41
2023-02-19T18:37:52.628Z,26.44
2023-02-19T18:40:44.795Z,26.60
2023-02-19T18:43:37.306Z,26.70
2023-02-19T18:46:26.156Z,26.73
2023-02-19T18:49:14.966Z,26.79
2023-02-19T18:52:03.610Z,26.63
2023-02-19T18:54:53.510Z,26.76
2023-02-19T18:57:42.158Z,26.87
2023-02-19T19:00:32.135Z,26.89
2023-02-19T19:03:20.738Z,26.83
2023-02-19T19:06:09.538Z,26.82
2023-02-19T19:08:58.637Z,26.82
2023-02-19T19:11:47.622Z,26.81
2023-02-19T19:14:36.253Z,26.50
2023-02-19T19:17:26.283Z,26.60
2023-02-19T19:20:19.814Z,26.17
2023-02-19T19:23:08.655Z,26.28
2023-02-19T19:25:57.412Z,26.29
2023-02-19T19:28:46.581Z,26.17
2023-02-19T19:31:36.501Z,26.15
2023-02-19T19:34:26.648Z,26.06
2023-02-19T19:37:15.327Z,26.09
2023-02-19T19:40:05.062Z,26.15
2023-02-19T19:42:54.371Z,26.14
2023-02-19T19:45:43.112Z,26.17
2023-02-19T19:48:33.160Z,26.15
2023-02-19T19:51:23.437Z,26.07
2023-02-19T19:54:13.190Z,26.09
2023-02-19T19:57:02.030Z,26.21
2023-02-19T19:59:51.161Z,26.12
2023-02-19T20:02:40.078Z,25.96
2023-02-19T20:05:28.989Z,26.03
2023-02-19T20:08:19.513Z,26.05
2023-02-19T20:11:08.394Z,26.04
2023-02-19T20:13:57.427Z,25.97
2023-02-19T20:16:47.500Z,25.99
2023-02-19T20:19:36.191Z,26.07
2023-02-19T20:22:25.217Z,26.07
2023-02-19T20:25:16.075Z,26.05
2023-02-19T20:28:04.833Z,26.13
2023-02-19T20:30:53.595Z,26.16
2023-02-19T20:33:42.249Z,26.25
2023-02-19T20:36:32.292Z,26.20
2023-02-19T20:39:22.207Z,26.10
2023-02-19T20:42:16.553Z,26.09
2023-02-19T20:45:05.935Z,25.98
2023-02-19T20:47:54.767Z,25.94
2023-02-19T20:50:43.400Z,25.83
2023-02-19T20:53:32.929Z,25.64
2023-02-19T20:56:21.702Z,25.83
2023-02-19T20:59:12.847Z,25.84
2023-02-19T21:02:08.077Z,25.77
2023-02-19T21:04:57.443Z,25.76
2023-02-19T21:07:46.153Z,25.74
2023-02-19T21:10:34.790Z,25.73
2023-02-19T21:13:23.601Z,25.74
2023-02-19T21:16:13.928Z,25.83
2023-02-19T21:19:02.851Z,25.75
2023-02-19T21:21:51.490Z,25.63
2023-02-19T21:24:40.112Z,25.61
2023-02-19T21:27:28.749Z,25.49
2023-02-19T21:30:17.530Z,25.41
2023-02-19T21:33:07.525Z,25.40
2023-02-19T21:35:57.514Z,25.40
2023-02-19T21:38:46.099Z,25.40
2023-02-19T21:41:34.861Z,25.33
2023-02-19T21:44:23.555Z,25.31
2023-02-19T21:47:12.662Z,25.36
2023-02-19T21:50:02.749Z,25.38
2023-02-19T21:52:51.621Z,25.32
2023-02-19T21:55:42.940Z,25.29
2023-02-19T21:58:38.634Z,25.22
2023-02-19T22:01:29.048Z,25.14
2023-02-19T22:04:19.787Z,25.16
2023-02-19T22:07:09.775Z,25.12
2023-02-19T22:09:58.650Z,25.11
2023-02-19T22:12:47.384Z,25.06
2023-02-19T22:15:36.124Z,25.07
2023-02-19T22:18:24.738Z,25.02
2023-02-19T22:21:13.345Z,25.00
2023-02-19T22:24:04.485Z,25.02
2023-02-19T22:26:57.044Z,25.08
2023-02-19T22:29:45.776Z,25.12
2023-02-19T22:32:34.551Z,25.10
2023-02-19T22:35:23.384Z,25.11
2023-02-19T22:38:12.028Z,25.07
2023-02-19T22:41:02.080Z,25.04
2023-02-19T22:43:51.355Z,25.04
2023-02-19T22:46:40.001Z,25.08
2023-02-19T22:49:28.747Z,25.06
2023-02-19T22:52:17.470Z,25.02
2023-02-19T22:55:06.573Z,25.02
2023-02-19T22:57:56.569Z,25.05
2023-02-19T23:00:45.229Z,25.00
2023-02-19T23:03:33.953Z,25.02
2023-02-19T23:06:24.698Z,25.03
2023-02-19T23:09:18.556Z,25.04
2023-02-19T23:12:09.209Z,24.98
2023-02-19T23:14:59.297Z,25.00
2023-02-19T23:17:47.931Z,25.05
2023-02-19T23:20:36.670Z,25.02
2023-02-19T23:23:25.407Z,25.02
2023-02-19T23:26:15.555Z,25.04
2023-02-19T23:29:05.186Z,25.04
2023-02-19T23:31:55.541Z,25.07
2023-02-19T23:34:44.150Z,25.05
2023-02-19T23:37:33.145Z,24.98
2023-02-19T23:40:21.789Z,24.95
2023-02-19T23:43:10.391Z,24.97
2023-02-19T23:45:59.105Z,24.96
2023-02-19T23:48:49.078Z,24.99
2023-02-19T23:51:37.727Z,24.91
2023-02-19T23:54:26.389Z,24.89
2023-02-19T23:57:15.093Z,24.88
